Sierra Nevada Aquatic Research Lab (SNARL) Reserve, Santa Monica Mtns, California Weather observations

Data are for 10 minute period ending at time listed.
 Day   Time   Solar   Ave.   Ave.  Ave.  Vector  Max.   Baro.   Total    
  of    of     Rad.   Air    Rel.  Wind   Wind   Wind  Press.  Precip.   
Year   Day            Temp.  Hum.  Speed  Dir.   Gust                    
2014   (PST)  Kw/m2    F      %     mph   deg.    mph    mb.     in.     
-------------------------------------------------------------------------
 328   17:20   0.00   31.2    24    2.9   246     5.7   792.8    0.00 
 328   17:30   0.00   30.2    25    3.8   261     5.8   792.9    0.00 
 328   17:40   0.00   28.9    28    2.6   284     3.7   793.0    0.00 
 328   17:50   0.00   28.3    27    1.1   261     2.9   793.1    0.00 
 328   18:00   0.00   28.4    28    1.4   277     2.7   793.1    0.00 
 328   18:10   0.00   27.6    31    1.6   325     3.4   793.1    0.00 
 328   18:20   0.00   25.1    29    0.0   204     0.6   793.1    0.00 
 328   18:30   0.00   26.0    29    0.1   218     0.9   793.1    0.00 
 328   18:40   0.00   25.7    32    0.4   288     1.5   793.2    0.00 
 328   18:50   0.00   24.4    31    1.1   217     2.9   793.5    0.00 
 328   19:00   0.00   23.4    32    1.4   263     3.2   793.5    0.00 
 328   19:10   0.00   22.9    38    2.6   312     4.9   793.5    0.00 
 328   19:20   0.00   22.0    35    1.0   348     3.8   793.6    0.00 
 328   19:30   0.00   21.2    36    2.1   121     3.4   793.6    0.00 
 328   19:40   0.00   21.1    36    1.6    79     3.4   793.7    0.00 
 328   19:50   0.00   20.1    37    0.5   227     1.7   793.7    0.00 
 328   20:00   0.00   19.8    38    0.7   183     2.7   793.8    0.00 
 328   20:10   0.00   19.8    40    2.2   258     3.4   793.8    0.00 
 328   20:20   0.00   19.8    39    1.9   256     3.4   793.8    0.00 
 328   20:30   0.00   18.5    40    1.2   242     2.9   793.9    0.00 
 328   20:40   0.00   19.4    42    2.9   261     6.0   794.0    0.00 
 328   20:50   0.00   20.5    42    3.4   302     7.5   794.1    0.00 
 328   21:00   0.00   20.5    41    3.0   302     6.2   794.2    0.00 
 328   21:10   0.00   19.7    40    1.9   276     3.4   794.4    0.00 
 328   21:20   0.00   18.7    40    2.2   256     3.9   794.6    0.00 
 328   21:30   0.00   18.5    42    0.7   272     1.8   794.6    0.00 
 328   21:40   0.00   18.6    42    1.7   290     3.2   794.6    0.00 
 328   21:50   0.00   16.5    42    1.0   263     1.9   794.4    0.00 
 328   22:00   0.00   16.8    43    1.5   321     4.1   794.3    0.00 
 328   22:10   0.00   15.2    44    0.2   225     1.3   794.5    0.00 
 328   22:20   0.00   14.5    46    2.0   123     3.1   794.6    0.00 
 328   22:30   0.00   16.1    46    1.1   252     2.3   794.5    0.00 
 328   22:40   0.00   15.6    46    0.3   270     1.4   794.6    0.00 
 328   22:50   0.00   16.4    46    0.9   302     2.1   794.6    0.00 
 328   23:00   0.00   16.0    48    2.3   286     3.6   794.7    0.00 
 328   23:10   0.00   15.5    48    1.0   239     1.7   794.7    0.00 
 328   23:20   0.00   14.9    48    1.4   258     4.7   794.7    0.00 
 328   23:30   0.00   17.3    48    3.8   304     7.0   794.7    0.00 
 328   23:40   0.00   18.1    45    3.3   310     5.8   794.7    0.00 
 328   23:50   0.00   17.0    46    3.0   293     5.6   794.7    0.00 
 329    0:00   0.00   15.2    47    1.9   248     3.4   794.8    0.00 
 329    0:10   0.00   13.3    48    1.0   218     1.7   794.7    0.00 
 329    0:20   0.00   13.2    52    0.7   203     1.6   794.7    0.00 
 329    0:30   0.00   13.9    55    1.7   336     4.2   794.7    0.00 
 329    0:40   0.00   14.0    51    0.4    14     2.7   794.7    0.00 
 329    0:50   0.00   15.5    48    0.6   324     4.1   794.8    0.00 
 329    1:00   0.00   14.5    50    0.7   298     4.1   794.8    0.00 
 329    1:10   0.00   14.4    52    1.9   273     3.7   794.9    0.00 
 329    1:20   0.00   14.4    51    0.7   256     1.5   794.8    0.00 
 329    1:30   0.00   14.3    53    0.3   271     2.2   794.9    0.00 
 329    1:40   0.00   16.1    49    1.6   293     3.3   795.0    0.00 
 329    1:50   0.00   15.0    51    1.0   305     3.9   795.0    0.00 
 329    2:00   0.00   15.0    53    3.4   252     4.5   795.1    0.00 
 329    2:10   0.00   15.8    52    2.9   297     8.4   795.1    0.00 
 329    2:20   0.00   15.6    51    2.6   313     5.8   795.1    0.00 
 329    2:30   0.00   15.2    54    1.6   171     5.7   795.2    0.00 
 329    2:40   0.00   15.4    52    1.7   193     3.7   795.3    0.00 
 329    2:50   0.00   15.2    54    1.6    40     3.1   795.4    0.00 
 329    3:00   0.00   15.6    54    1.7   342     2.7   795.3    0.00 
 329    3:10   0.00   14.7    54    0.8   258     2.4   795.3    0.00 
 329    3:20   0.00   13.0    54    1.6   276     3.6   795.3    0.00 
 329    3:30   0.00   14.1    54    1.9   263     3.3   795.2    0.00 
 329    3:40   0.00   14.4    54    2.4   285     3.4   795.1    0.00 
 329    3:50   0.00   15.0    55    2.0   322     4.1   795.0    0.00 
 329    4:00   0.00   14.2    54    1.7   342     4.3   795.1    0.00 
 329    4:10   0.00   12.7    55    0.7   200     2.0   795.1    0.00 
 329    4:20   0.00   12.4    57    1.7   235     2.5   795.1    0.00 
 329    4:30   0.00   13.4    56    1.0   147     2.5   795.0    0.00 
 329    4:40   0.00   14.1    58    1.9    64     4.0   794.9    0.00 
 329    4:50   0.00   13.7    56    1.6   220     2.9   794.9    0.00 
 329    5:00   0.00   12.4    56    3.0   244     3.9   795.0    0.00 
 329    5:10   0.00   12.6    56    3.2   246     4.5   795.1    0.00 
 329    5:20   0.00   13.6    58    2.2   290     3.1   795.1    0.00 
 329    5:30   0.00   13.6    58    1.7   262     3.4   795.2    0.00 
 329    5:40   0.00   15.2    60    3.0   307     6.6   795.3    0.00 
 329    5:50   0.00   15.7    56    3.2   293     6.6   795.4    0.00 
 329    6:00   0.00   14.5    58    2.8   242     4.0   795.4    0.00 
 329    6:10   0.00   15.2    60    1.1   294     3.1   795.6    0.00 
 329    6:20   0.00   14.6    61    1.3   280     2.2   795.6    0.00 
 329    6:30   0.00   14.2    61    0.7   288     2.6   795.5    0.00 
 329    6:40   0.00   14.2    61    2.1   317     3.9   795.6    0.00 
 329    6:50   0.00   13.7    62    0.3   204     1.9   795.7    0.00 
 329    7:00   0.00   14.8    61    1.3   268     2.8   795.8    0.00 
 329    7:10   0.01   16.9    60    1.2   296     3.4   795.8    0.00 
 329    7:20   0.01   16.1    58    1.1   236     2.7   795.9    0.00 
 329    7:30   0.01   15.2    61    1.1   230     3.4   796.0    0.00 
 329    7:40   0.04   17.0    58    2.0   212     6.6   796.0    0.00 
 329    7:50   0.10   19.4    55    1.7   354     3.6   796.2    0.00 
 329    8:00   0.17   23.7    48    1.1   122     2.8   796.4    0.00 
 329    8:10   0.20   27.8    42    0.7   160     2.2   796.4    0.00 
 329    8:20   0.23   30.6    39    0.9   222     2.0   796.6    0.00 
 329    8:30   0.25   32.5    36    1.8    33     3.1   796.6    0.00 
 329    8:40   0.28   33.5    34    1.4    94     3.7   796.6    0.00 
 329    8:50   0.31   35.8    32    1.6    76     3.1   796.7    0.00 
 329    9:00   0.33   37.1    32    1.7   146     3.9   796.6    0.00 
 329    9:10   0.36   38.8    30    1.4    18     3.2   796.7    0.00 
 329    9:20   0.38   40.6    29    1.3   145     4.6   796.6    0.00 
 329    9:30   0.40   42.1    27    2.1    58     4.8   796.5    0.00 
 329    9:40   0.42   43.5    26    2.3    50     4.3   796.5    0.00 
 329    9:50   0.44   45.8    24    2.0   123     4.2   796.4    0.00 
 329   10:00   0.46   47.0    24    3.0    56     5.3   796.4    0.00 
 329   10:10   0.48   46.1    25    2.2    59     5.3   796.2    0.00 
 329   10:20   0.49   48.2    24    2.3    57     4.5   796.0    0.00 
 329   10:30   0.51   49.7    23    1.8    54     3.9   795.8    0.00 
 329   10:40   0.52   52.6    21    1.5    92     3.9   795.5    0.00 
 329   10:50   0.53   54.2    21    5.1    54     9.5   795.5    0.00 
 329   11:00   0.54   53.5    22    4.1    76     7.0   795.5    0.00 
 329   11:10   0.55   55.7    21    2.9    72     5.3   795.3    0.00 
 329   11:20   0.55   57.5    20    2.6    48     4.6   795.3    0.00 
 329   11:30   0.56   61.4    18    2.9    72     7.0   795.2    0.00 
 329   11:40   0.56   63.6    18    4.0   360     8.3   795.0    0.00 
 329   11:50   0.56   64.8    18    6.3   328    16.5   794.9    0.00 
 329   12:00   0.55   64.9    17    7.3   317    15.1   795.0    0.00 
 329   12:10   0.56   65.3    17   11.1   306    23.2   795.0    0.00 
 329   12:20   0.55   64.9    16   12.0   294    23.2   795.0    0.00 
 329   12:30   0.54   65.1    16   10.5   302    21.9   795.0    0.00 
 329   12:40   0.53   65.0    16   10.2   314    20.8   794.9    0.00 
 329   12:50   0.53   64.7    16   13.7   331    25.4   794.8    0.00 
 329   13:00   0.52   65.2    16   10.4   308    20.9   794.8    0.00 
 329   13:10   0.50   65.1    17   11.2   332    20.5   794.7    0.00 
 329   13:20   0.48   65.4    17   11.2   337    21.6   794.6    0.00 
 329   13:30   0.47   64.8    17    9.9   331    21.3   794.7    0.00 
 329   13:40   0.45   65.2    16   10.3   329    21.3   794.7    0.00 
 329   13:50   0.43   64.7    17   12.0   326    20.7   794.7    0.00 
 329   14:00   0.40   64.7    16   11.2   344    20.5   794.6    0.00 
 329   14:10   0.38   64.5    16   13.0   337    24.5   794.6    0.00 
 329   14:20   0.36   64.0    16   12.9   336    22.8   794.6    0.00 
 329   14:30   0.33   64.0    17   10.8   334    20.3   794.6    0.00 
 329   14:40   0.31   64.4    17    8.9   344    17.4   794.6    0.00 
 329   14:50   0.28   64.0    16   10.8   346    20.8   794.6    0.00 
 329   15:00   0.26   63.5    17   11.2   333    19.2   794.7    0.00 
 329   15:10   0.23   63.1    17   11.0   339    20.5   794.7    0.00 
 329   15:20   0.20   63.0    16   10.0   334    17.6   794.7    0.00 
 329   15:30   0.09   62.3    17    8.6   343    15.1   794.8    0.00 
 329   15:40   0.01   60.2    18    7.8   336    15.6   794.7    0.00 
 329   15:50   0.01   59.0    19    7.8   337    16.7   794.6    0.00 
 329   16:00   0.01   58.3    19    4.4   333    12.5   794.5    0.00 
 329   16:10   0.01   57.0    20    3.6   316     9.3   794.4    0.00 
 329   16:20   0.01   53.2    22    4.6   217     7.2   794.4    0.00 
 329   16:30   0.00   50.9    24    5.2   256     9.5   794.3    0.00 
 329   16:40   0.00   51.1    24    6.0   262     9.3   794.4    0.00 
 329   16:50   0.00   51.4    24    6.7   260     9.3   794.4    0.00 
 329   17:00   0.00   51.3    24    6.6   245     8.8   794.4    0.00 
 329   17:10   0.00   49.8    26    7.4   238    10.4   794.5    0.00 

Return to SNARL Reserve graphs page.


Western Regional Climate Center,wrcc@dri.edu